Airfield :
LOGIN :

Register | Disclaimer

   EN    FR    IT 

 










Legend :    VFR   Marginal VFR   IFR   Intensive IFR   Very Intensive IFR
Visi :
Ceiling :
>= 8 km
>= 3000ft
5 to 8 km
1000 to 3000 ft
1500m to 5 km
500 to 1000 ft
800 to 1500m
200 to 500 ft
< 800m
< 200 ft
Symbols :   Thunderstorms  Fog  Heavy snow  Heavy precipitations  Wind > 20 kt
SIGMETs :     Misc.  Thunderstorms  Icing  Turbulence  Mountain Waves  Volcanic Ashes






- Airport Elevation : 249 ft


EGOS - RAF Shawbury

CURRENT METAR :
  • 071820Z AUTO 25006KT 9999 // NCD 09/07 Q1015

EXPIRED METARs :
  • 071750Z AUTO 26006KT 9999 // FEW089/// 10/08 Q1014
  • 071720Z AUTO 25008KT 9999 -DZ FEW045/// SCT055/// BKN087/// 12/09 Q1014
  • 071650Z AUTO 28011KT 0550 +RA FEW020/// SCT055/// 12/09 Q1014
  • 071620Z AUTO 25013KT 9999 FEW091/// 14/09 Q1013
  • 071550Z 25015KT 9999 FEW029 15/09 Q1013 NOSIG RMK BLU BLU

Expired Forecast.



MET'MAP, your aeronautical weather chart ! - Copyright ORBIFLY December 2007 - Disclaimer

ORBIFLY MET'MAP TEAM :

Programming & Development : Alexandra Zaïnal
Original concept : Baudouin d'Aumeries
Technical & hardware support : Manuel Goepfert
Assistance : Marc-Olivier Méhu




SOURCES & CREDITS :

   NOAA